TCMAR LTBQ-LTFM
Flight info
| Callsign | TCMAR |
|---|---|
| Flight time | N/A |
| Altitude | 8000 |
| Route | IST |
| Aircraft | C208/L-SDFGR/C |
Departure
| Time | 2026-04-30 17:59 |
|---|---|
| Airport | Cengiz Topel Airport (LTBQ) |
Arrival
| Time | N/A |
|---|---|
| Airport | İstanbul Airport (LTFM) |
| Time | Latitude | Longitude | Altitude | Speed | Heading |
|---|---|---|---|---|---|
| 2026-04-30 17:56 | 40.75672 | 29.90376 | 163 ft | 83 kts | 269° |
| 2026-04-30 17:57 | 40.75491 | 29.87944 | 483 ft | 97 kts | 267° |
| 2026-04-30 17:58 | 40.75346 | 29.84911 | 492 ft | 117 kts | 273° |
| 2026-04-30 17:59 | 40.75263 | 29.81020 | 1043 ft | 90 kts | 274° |
| 2026-04-30 18:00 | 40.75064 | 29.77954 | 1524 ft | 100 kts | 271° |
| 2026-04-30 18:00 | 40.74961 | 29.74813 | 1636 ft | 121 kts | 273° |
| 2026-04-30 18:01 | 40.74913 | 29.72779 | 2064 ft | 109 kts | 272° |
| 2026-04-30 18:02 | 40.74861 | 29.69757 | 2515 ft | 111 kts | 272° |
| 2026-04-30 18:02 | 40.74849 | 29.66800 | 2961 ft | 103 kts | 272° |
| 2026-04-30 18:03 | 40.74850 | 29.63998 | 3368 ft | 102 kts | 272° |
| 2026-04-30 18:04 | 40.74848 | 29.61246 | 3733 ft | 99 kts | 272° |
| 2026-04-30 18:05 | 40.74853 | 29.57675 | 4224 ft | 95 kts | 272° |
| 2026-04-30 18:06 | 40.74858 | 29.54283 | 4721 ft | 91 kts | 271° |
| 2026-04-30 18:07 | 40.75147 | 29.51090 | 5224 ft | 85 kts | 288° |
| 2026-04-30 18:08 | 40.75707 | 29.48925 | 5577 ft | 82 kts | 288° |
| 2026-04-30 18:09 | 40.76486 | 29.46153 | 6077 ft | 79 kts | 287° |
| 2026-04-30 18:10 | 40.77281 | 29.43557 | 6570 ft | 75 kts | 287° |
| 2026-04-30 18:11 | 40.78133 | 29.41064 | 6958 ft | 78 kts | 287° |
| 2026-04-30 18:11 | 40.78800 | 29.39133 | 7244 ft | 73 kts | 287° |
| 2026-04-30 18:12 | 40.79429 | 29.37458 | 7561 ft | 61 kts | 286° |
| 2026-04-30 18:13 | 40.79834 | 29.36494 | 7647 ft | 64 kts | 286° |
| 2026-04-30 18:13 | 40.80447 | 29.34931 | 7720 ft | 79 kts | 288° |
| 2026-04-30 18:14 | 40.81021 | 29.33409 | 7839 ft | 80 kts | 287° |
| 2026-04-30 18:15 | 40.81751 | 29.31457 | 7975 ft | 77 kts | 287° |
| 2026-04-30 18:15 | 40.82497 | 29.29476 | 8002 ft | 84 kts | 287° |
| 2026-04-30 18:16 | 40.82877 | 29.28029 | 8006 ft | 84 kts | 278° |
| 2026-04-30 18:16 | 40.83201 | 29.26541 | 8004 ft | 85 kts | 278° |
| 2026-04-30 18:17 | 40.83362 | 29.25791 | 8004 ft | 85 kts | 278° |
| 2026-04-30 18:17 | 40.83522 | 29.25039 | 8009 ft | 85 kts | 278° |
| 2026-04-30 18:17 | 40.83846 | 29.23520 | 8003 ft | 86 kts | 278° |
| 2026-04-30 18:18 | 40.84008 | 29.22759 | 7997 ft | 86 kts | 278° |
| 2026-04-30 18:18 | 40.84169 | 29.21998 | 7989 ft | 86 kts | 278° |
| 2026-04-30 18:18 | 40.84332 | 29.21225 | 7944 ft | 90 kts | 278° |
| 2026-04-30 18:18 | 40.84502 | 29.20427 | 7874 ft | 93 kts | 278° |
| 2026-04-30 18:19 | 40.84682 | 29.19586 | 7756 ft | 95 kts | 279° |
| 2026-04-30 18:19 | 40.84863 | 29.18736 | 7624 ft | 97 kts | 279° |
| 2026-04-30 18:19 | 40.85046 | 29.17877 | 7507 ft | 97 kts | 280° |
| 2026-04-30 18:19 | 40.85229 | 29.17018 | 7381 ft | 97 kts | 280° |
| 2026-04-30 18:20 | 40.85412 | 29.16159 | 7252 ft | 97 kts | 280° |
| 2026-04-30 18:20 | 40.85593 | 29.15297 | 7130 ft | 97 kts | 280° |
| 2026-04-30 18:20 | 40.85773 | 29.14438 | 7006 ft | 97 kts | 280° |
| 2026-04-30 18:20 | 40.85955 | 29.13582 | 6881 ft | 97 kts | 281° |
| 2026-04-30 18:21 | 40.86137 | 29.12723 | 6755 ft | 97 kts | 281° |
| 2026-04-30 18:21 | 40.86319 | 29.11859 | 6635 ft | 98 kts | 281° |
| 2026-04-30 18:21 | 40.86507 | 29.10973 | 6466 ft | 101 kts | 281° |
| 2026-04-30 18:21 | 40.86695 | 29.10076 | 6286 ft | 102 kts | 282° |
| 2026-04-30 18:22 | 40.86886 | 29.09166 | 6105 ft | 103 kts | 282° |
| 2026-04-30 18:22 | 40.87271 | 29.07330 | 5737 ft | 104 kts | 283° |
| 2026-04-30 18:22 | 40.87398 | 29.06717 | 5619 ft | 105 kts | 283° |
| 2026-04-30 18:23 | 40.87593 | 29.05779 | 5446 ft | 106 kts | 282° |
| 2026-04-30 18:23 | 40.87790 | 29.04844 | 5263 ft | 105 kts | 283° |
| 2026-04-30 18:23 | 40.87987 | 29.03907 | 5083 ft | 106 kts | 284° |
| 2026-04-30 18:23 | 40.88186 | 29.02960 | 4906 ft | 108 kts | 285° |
| 2026-04-30 18:24 | 40.88594 | 29.01010 | 4541 ft | 111 kts | 287° |
| 2026-04-30 18:24 | 40.88804 | 29.00020 | 4360 ft | 112 kts | 288° |
| 2026-04-30 18:24 | 40.89008 | 28.99048 | 4251 ft | 108 kts | 289° |
| 2026-04-30 18:25 | 40.89206 | 28.98093 | 4140 ft | 107 kts | 289° |
| 2026-04-30 18:25 | 40.89598 | 28.96219 | 3973 ft | 103 kts | 289° |
| 2026-04-30 18:25 | 40.89782 | 28.95325 | 3961 ft | 98 kts | 291° |
| 2026-04-30 18:26 | 40.90127 | 28.93648 | 3965 ft | 93 kts | 292° |
| 2026-04-30 18:26 | 40.90297 | 28.92826 | 3965 ft | 92 kts | 293° |
| 2026-04-30 18:26 | 40.90470 | 28.92017 | 3963 ft | 91 kts | 297° |
| 2026-04-30 18:27 | 40.90802 | 28.90405 | 3967 ft | 92 kts | 298° |
| 2026-04-30 18:27 | 40.90970 | 28.89587 | 3971 ft | 92 kts | 293° |
| 2026-04-30 18:28 | 40.91309 | 28.87982 | 3968 ft | 90 kts | 293° |
| 2026-04-30 18:28 | 40.91472 | 28.87180 | 3968 ft | 91 kts | 297° |
| 2026-04-30 18:28 | 40.91817 | 28.85534 | 3974 ft | 95 kts | 297° |
| 2026-04-30 18:29 | 40.91991 | 28.84700 | 3971 ft | 96 kts | 297° |
| 2026-04-30 18:29 | 40.92514 | 28.82166 | 3968 ft | 96 kts | 298° |
| 2026-04-30 18:30 | 40.93254 | 28.80913 | 3976 ft | 88 kts | 320° |
| 2026-04-30 18:30 | 40.94062 | 28.79729 | 3969 ft | 85 kts | 324° |
| 2026-04-30 18:31 | 40.94441 | 28.79131 | 3968 ft | 83 kts | 324° |
| 2026-04-30 18:31 | 40.95271 | 28.78183 | 3995 ft | 76 kts | 332° |
| 2026-04-30 18:32 | 40.96117 | 28.77393 | 3994 ft | 72 kts | 338° |
| 2026-04-30 18:32 | 40.96516 | 28.77011 | 3997 ft | 70 kts | 336° |
| 2026-04-30 18:32 | 40.97288 | 28.76287 | 3992 ft | 63 kts | 349° |
| 2026-04-30 18:33 | 40.97679 | 28.76240 | 3988 ft | 56 kts | 7° |
| 2026-04-30 18:33 | 40.98562 | 28.76231 | 4066 ft | 76 kts | 11° |
| 2026-04-30 18:33 | 40.99115 | 28.76230 | 4081 ft | 88 kts | 7° |
| 2026-04-30 18:34 | 40.99783 | 28.76230 | 4012 ft | 101 kts | 4° |
| 2026-04-30 18:34 | 41.01190 | 28.76215 | 4004 ft | 99 kts | 7° |
| 2026-04-30 18:34 | 41.01889 | 28.76206 | 4003 ft | 101 kts | 7° |
| 2026-04-30 18:35 | 41.02574 | 28.76195 | 4001 ft | 100 kts | 6° |
| 2026-04-30 18:35 | 41.03274 | 28.76185 | 3997 ft | 100 kts | 7° |
| 2026-04-30 18:35 | 41.03980 | 28.76171 | 3994 ft | 100 kts | 6° |
| 2026-04-30 18:36 | 41.05342 | 28.76177 | 3995 ft | 96 kts | 10° |
| 2026-04-30 18:36 | 41.06005 | 28.76306 | 4004 ft | 95 kts | 14° |
| 2026-04-30 18:36 | 41.07372 | 28.76198 | 3994 ft | 99 kts | 4° |
| 2026-04-30 18:37 | 41.08052 | 28.76136 | 3950 ft | 99 kts | 5° |
| 2026-04-30 18:37 | 41.08762 | 28.76098 | 3839 ft | 104 kts | 4° |
| 2026-04-30 18:37 | 41.09500 | 28.76071 | 3698 ft | 107 kts | 6° |
| 2026-04-30 18:37 | 41.10251 | 28.76049 | 3552 ft | 109 kts | 6° |
| 2026-04-30 18:38 | 41.11011 | 28.76029 | 3402 ft | 109 kts | 7° |
| 2026-04-30 18:38 | 41.11768 | 28.76015 | 3249 ft | 108 kts | 7° |
| 2026-04-30 18:38 | 41.12515 | 28.75998 | 3102 ft | 107 kts | 7° |
| 2026-04-30 18:38 | 41.13253 | 28.75981 | 2956 ft | 105 kts | 8° |
| 2026-04-30 18:39 | 41.13980 | 28.75968 | 2818 ft | 104 kts | 8° |
| 2026-04-30 18:39 | 41.14704 | 28.75956 | 2671 ft | 105 kts | 8° |
| 2026-04-30 18:39 | 41.15459 | 28.75941 | 2537 ft | 110 kts | 7° |
| 2026-04-30 18:39 | 41.16229 | 28.75928 | 2371 ft | 110 kts | 8° |
| 2026-04-30 18:40 | 41.16982 | 28.75916 | 2229 ft | 106 kts | 7° |
| 2026-04-30 18:40 | 41.17719 | 28.75905 | 2077 ft | 108 kts | 8° |
| 2026-04-30 18:40 | 41.18468 | 28.75889 | 1932 ft | 108 kts | 8° |
| 2026-04-30 18:40 | 41.19218 | 28.75875 | 1786 ft | 107 kts | 7° |
| 2026-04-30 18:41 | 41.19959 | 28.75860 | 1637 ft | 107 kts | 7° |
| 2026-04-30 18:41 | 41.20700 | 28.75845 | 1487 ft | 107 kts | 6° |
| 2026-04-30 18:41 | 41.21450 | 28.75830 | 1339 ft | 109 kts | 6° |
| 2026-04-30 18:41 | 41.22196 | 28.75813 | 1190 ft | 105 kts | 8° |
| 2026-04-30 18:42 | 41.22925 | 28.75802 | 1034 ft | 105 kts | 8° |
| 2026-04-30 18:42 | 41.24403 | 28.75776 | 745 ft | 107 kts | 4° |
| 2026-04-30 18:42 | 41.25109 | 28.75662 | 578 ft | 94 kts | 1° |